createdAt,value
2023-03-27T00:01:30.771Z,3.42
2023-03-27T00:03:57.837Z,3.39
2023-03-27T00:06:27.606Z,3.36
2023-03-27T00:08:54.562Z,3.30
2023-03-27T00:11:25.198Z,3.24
2023-03-27T00:13:54.766Z,3.17
2023-03-27T00:16:23.111Z,3.10
2023-03-27T00:18:50.344Z,3.05
2023-03-27T00:21:17.382Z,3.01
2023-03-27T00:23:44.555Z,2.98
2023-03-27T00:26:15.583Z,2.96
2023-03-27T00:28:42.560Z,2.95
2023-03-27T00:31:14.465Z,2.93
2023-03-27T00:33:42.165Z,2.91
2023-03-27T00:36:10.421Z,2.89
2023-03-27T00:38:37.399Z,2.79
2023-03-27T00:41:05.212Z,2.67
2023-03-27T00:43:36.634Z,2.56
2023-03-27T00:46:18.936Z,2.51
2023-03-27T00:48:50.274Z,2.49
2023-03-27T00:51:20.104Z,2.46
2023-03-27T00:53:48.373Z,2.41
2023-03-27T00:56:16.820Z,2.34
2023-03-27T00:58:51.439Z,2.28
2023-03-27T01:01:20.230Z,2.24
2023-03-27T01:03:49.504Z,2.21
2023-03-27T01:06:17.551Z,2.17
2023-03-27T01:08:46.277Z,2.12
2023-03-27T01:11:13.292Z,2.08
2023-03-27T01:13:43.111Z,2.04
2023-03-27T01:16:23.362Z,2.01
2023-03-27T01:18:59.324Z,1.98
2023-03-27T01:21:54.104Z,1.93
2023-03-27T01:25:04.457Z,1.89
2023-03-27T01:27:58.761Z,1.84
2023-03-27T01:30:32.039Z,1.80
2023-03-27T01:33:01.956Z,1.76
2023-03-27T01:35:38.024Z,1.70
2023-03-27T01:38:11.077Z,1.63
2023-03-27T01:41:06.477Z,1.56
2023-03-27T01:43:51.950Z,1.51
2023-03-27T01:46:28.752Z,1.43
2023-03-27T01:49:02.970Z,1.41
2023-03-27T01:51:39.826Z,1.37
2023-03-27T01:54:24.965Z,1.33
2023-03-27T01:57:04.779Z,1.32
2023-03-27T01:59:36.694Z,1.34
2023-03-27T02:02:10.608Z,1.35
2023-03-27T02:05:01.406Z,1.36
2023-03-27T02:07:42.778Z,1.37
2023-03-27T02:10:15.497Z,1.37
2023-03-27T02:12:53.151Z,1.39
2023-03-27T02:18:13.104Z,1.36
2023-03-27T02:20:41.821Z,1.35
2023-03-27T02:23:08.995Z,1.35
2023-03-27T02:25:38.449Z,1.34
2023-03-27T02:28:24.094Z,1.35
2023-03-27T02:31:31.507Z,1.35
2023-03-27T02:34:13.581Z,1.35
2023-03-27T02:37:02.366Z,1.34
2023-03-27T02:40:10.469Z,1.35
2023-03-27T02:43:03.240Z,1.34
2023-03-27T02:46:05.644Z,1.30
2023-03-27T02:48:42.429Z,1.24
2023-03-27T02:51:11.746Z,1.16
2023-03-27T02:53:46.896Z,1.07
2023-03-27T02:56:16.532Z,1.01
2023-03-27T02:59:11.594Z,1.00
2023-03-27T03:01:41.217Z,1.00
2023-03-27T03:04:28.591Z,0.98
2023-03-27T03:07:07.259Z,0.98
2023-03-27T03:09:34.777Z,0.94
2023-03-27T03:12:08.394Z,0.92
2023-03-27T03:14:44.339Z,0.90
2023-03-27T03:17:12.632Z,0.87
2023-03-27T03:19:39.498Z,0.84
2023-03-27T03:22:07.046Z,0.81
2023-03-27T03:24:35.830Z,0.79
2023-03-27T03:27:05.958Z,0.74
2023-03-27T03:29:40.597Z,0.71
2023-03-27T03:32:13.342Z,0.69
2023-03-27T03:34:41.804Z,0.69
2023-03-27T03:37:11.265Z,0.68
2023-03-27T03:39:38.235Z,0.65
2023-03-27T03:42:06.087Z,0.61
2023-03-27T03:44:34.773Z,0.58
2023-03-27T03:47:09.257Z,0.59
2023-03-27T03:49:36.100Z,0.59
2023-03-27T03:52:04.728Z,0.58
2023-03-27T03:54:33.150Z,0.54
2023-03-27T03:57:00.211Z,0.51
2023-03-27T03:59:27.344Z,0.48
2023-03-27T04:02:29.799Z,0.45
2023-03-27T04:05:08.429Z,0.42
2023-03-27T04:07:36.438Z,0.36
2023-03-27T04:10:41.031Z,0.30
2023-03-27T04:13:14.769Z,0.27
2023-03-27T04:15:51.598Z,0.24
2023-03-27T04:18:35.721Z,0.22
2023-03-27T04:21:06.997Z,0.23
2023-03-27T04:23:34.007Z,0.25
2023-03-27T04:26:03.450Z,0.28
2023-03-27T04:28:55.987Z,0.33
2023-03-27T04:31:55.510Z,0.42
2023-03-27T04:34:50.402Z,0.53
2023-03-27T04:37:36.271Z,0.63
2023-03-27T04:40:22.031Z,0.69
2023-03-27T04:42:50.431Z,0.69
2023-03-27T04:45:20.655Z,0.67
2023-03-27T04:47:49.233Z,0.69
2023-03-27T04:50:16.543Z,0.81
2023-03-27T04:52:44.983Z,0.95
2023-03-27T04:55:12.462Z,1.07
2023-03-27T04:57:41.987Z,1.19
2023-03-27T05:00:17.255Z,1.28
2023-03-27T05:02:47.968Z,1.31
2023-03-27T05:05:20.698Z,1.27
2023-03-27T05:07:49.726Z,1.20
2023-03-27T05:10:21.544Z,1.13
2023-03-27T05:12:51.543Z,1.15
2023-03-27T05:15:19.458Z,1.22
2023-03-27T05:17:54.566Z,1.30
2023-03-27T05:20:24.352Z,1.34
2023-03-27T05:22:56.529Z,1.35
2023-03-27T05:25:28.886Z,1.26
2023-03-27T05:27:56.449Z,1.19
2023-03-27T05:30:27.139Z,1.22
2023-03-27T05:33:09.629Z,1.33
2023-03-27T05:35:37.935Z,1.45
2023-03-27T05:38:06.747Z,1.57
2023-03-27T05:40:35.898Z,1.68
2023-03-27T05:43:04.225Z,1.81
2023-03-27T05:45:32.699Z,1.92
2023-03-27T05:48:02.912Z,2.03
2023-03-27T05:50:34.786Z,2.13
2023-03-27T05:53:11.258Z,2.18
2023-03-27T05:55:42.565Z,2.29
2023-03-27T05:58:11.924Z,2.44
2023-03-27T06:00:44.446Z,2.63
2023-03-27T06:03:17.431Z,2.84
2023-03-27T06:06:00.313Z,3.07
2023-03-27T06:08:29.951Z,3.40
2023-03-27T06:10:57.798Z,3.79
2023-03-27T06:13:32.126Z,4.16
2023-03-27T06:16:07.615Z,4.60
2023-03-27T06:18:54.537Z,5.10
2023-03-27T06:21:22.837Z,5.71
2023-03-27T06:23:50.520Z,6.31
2023-03-27T06:26:18.904Z,6.73
2023-03-27T06:28:46.290Z,7.16
2023-03-27T06:31:15.025Z,7.29
2023-03-27T06:34:15.309Z,7.27
2023-03-27T06:37:08.391Z,7.29
2023-03-27T06:39:39.172Z,7.29
2023-03-27T06:42:06.065Z,7.24
2023-03-27T06:44:45.754Z,7.19
2023-03-27T06:47:24.289Z,7.10
2023-03-27T06:50:24.539Z,6.99
2023-03-27T06:52:52.086Z,6.92
2023-03-27T06:55:37.995Z,6.90
2023-03-27T06:58:04.961Z,6.93
2023-03-27T07:00:35.508Z,6.96
2023-03-27T07:03:32.437Z,7.00
2023-03-27T07:06:19.557Z,7.09
2023-03-27T07:08:57.654Z,7.21
2023-03-27T07:11:25.657Z,7.30
2023-03-27T07:13:58.102Z,7.35
2023-03-27T07:16:27.523Z,7.36
2023-03-27T07:18:54.831Z,7.32
2023-03-27T07:21:23.236Z,7.29
2023-03-27T07:23:50.305Z,7.24
2023-03-27T07:26:27.601Z,7.21
2023-03-27T07:29:00.777Z,7.19
2023-03-27T07:31:48.976Z,7.18
2023-03-27T07:34:16.978Z,7.13
2023-03-27T07:37:07.290Z,7.09
2023-03-27T07:39:34.278Z,7.07
2023-03-27T07:42:01.567Z,7.08
2023-03-27T07:44:48.215Z,7.17
2023-03-27T07:47:15.253Z,7.31
2023-03-27T07:49:42.153Z,7.50
2023-03-27T07:52:12.911Z,7.71
2023-03-27T07:55:01.899Z,7.92
2023-03-27T07:57:54.462Z,8.14
2023-03-27T08:00:26.178Z,8.41
2023-03-27T08:03:11.944Z,8.67
2023-03-27T08:05:43.414Z,8.95
2023-03-27T08:08:12.938Z,9.37
2023-03-27T08:10:53.948Z,9.93
2023-03-27T08:13:21.352Z,10.41
2023-03-27T08:15:48.811Z,10.97
2023-03-27T08:18:27.307Z,11.52
2023-03-27T08:20:58.672Z,11.92
2023-03-27T08:23:29.108Z,12.31
2023-03-27T08:26:05.932Z,12.73
2023-03-27T08:28:38.878Z,12.53
2023-03-27T08:31:15.288Z,12.13
2023-03-27T08:33:43.500Z,11.87
2023-03-27T08:36:14.862Z,12.03
2023-03-27T08:38:43.405Z,12.39
2023-03-27T08:41:24.733Z,12.55
2023-03-27T08:44:04.038Z,12.62
2023-03-27T08:47:06.151Z,12.70
2023-03-27T08:49:44.847Z,12.81
2023-03-27T08:52:27.469Z,12.87
2023-03-27T08:55:00.732Z,13.33
2023-03-27T08:57:35.201Z,13.59
2023-03-27T09:00:19.815Z,13.32
2023-03-27T09:03:01.296Z,12.96
2023-03-27T09:05:42.948Z,12.70
2023-03-27T09:08:25.975Z,12.64
2023-03-27T09:11:01.741Z,12.78
2023-03-27T09:13:49.137Z,12.81
2023-03-27T09:16:21.459Z,12.52
2023-03-27T09:19:00.732Z,12.14
2023-03-27T09:21:58.236Z,11.96
2023-03-27T09:24:52.423Z,11.84
2023-03-27T09:27:53.324Z,11.63
2023-03-27T09:30:43.884Z,11.59
2023-03-27T09:33:31.386Z,11.48
2023-03-27T09:35:59.313Z,11.37
2023-03-27T09:38:35.796Z,11.33
2023-03-27T09:41:11.806Z,11.25
2023-03-27T09:44:07.496Z,11.03
2023-03-27T09:46:42.878Z,10.67
2023-03-27T09:49:18.614Z,10.32
2023-03-27T09:51:52.332Z,10.02
2023-03-27T09:54:51.425Z,9.87
2023-03-27T09:57:18.752Z,9.71
2023-03-27T10:00:00.838Z,9.59
2023-03-27T10:02:31.938Z,9.45
2023-03-27T10:05:18.127Z,9.32
2023-03-27T10:07:47.598Z,9.22
2023-03-27T10:10:56.430Z,9.08
2023-03-27T10:13:48.592Z,8.86
2023-03-27T10:16:20.169Z,8.69
2023-03-27T10:18:59.998Z,8.59
2023-03-27T10:21:32.794Z,8.51
2023-03-27T10:24:17.561Z,8.45
2023-03-27T10:26:59.574Z,8.38
2023-03-27T10:29:29.625Z,8.33
2023-03-27T10:31:59.091Z,8.33
2023-03-27T10:34:53.007Z,8.28
2023-03-27T10:37:41.207Z,8.14
2023-03-27T10:40:29.974Z,8.00
2023-03-27T10:43:06.046Z,7.85
2023-03-27T10:45:48.289Z,7.67
2023-03-27T10:48:23.389Z,7.51
2023-03-27T10:50:58.010Z,7.30
2023-03-27T10:53:52.444Z,7.17
2023-03-27T10:56:31.452Z,7.16
2023-03-27T10:59:04.559Z,7.19
2023-03-27T11:01:42.699Z,7.18
2023-03-27T11:04:44.535Z,7.15
2023-03-27T11:07:20.923Z,7.15
2023-03-27T11:10:03.339Z,7.22
2023-03-27T11:12:37.204Z,7.28
2023-03-27T11:15:17.520Z,7.36
2023-03-27T11:17:52.405Z,7.44
2023-03-27T11:20:50.810Z,7.45
2023-03-27T11:23:33.527Z,7.36
2023-03-27T11:26:23.615Z,7.22
2023-03-27T11:29:04.365Z,7.11
2023-03-27T11:31:46.524Z,7.05
2023-03-27T11:34:36.662Z,7.03
2023-03-27T11:37:58.022Z,7.08
2023-03-27T11:40:39.566Z,7.17
2023-03-27T11:43:09.722Z,7.27
2023-03-27T11:45:47.541Z,7.30
2023-03-27T11:48:57.186Z,7.34
2023-03-27T11:51:24.500Z,7.37
2023-03-27T11:54:07.714Z,7.30
2023-03-27T11:56:58.122Z,7.20
2023-03-27T11:59:48.789Z,7.12
2023-03-27T12:02:31.624Z,7.09
2023-03-27T12:05:06.647Z,7.02
2023-03-27T12:08:27.435Z,6.89
2023-03-27T12:10:59.175Z,6.83
2023-03-27T12:14:23.812Z,6.84
2023-03-27T12:17:16.225Z,7.03
2023-03-27T12:20:31.095Z,7.44
2023-03-27T12:23:18.372Z,8.07
2023-03-27T12:26:31.274Z,8.20
2023-03-27T12:29:23.511Z,8.11
2023-03-27T12:32:04.936Z,8.03
2023-03-27T12:34:59.987Z,7.89
2023-03-27T12:37:45.771Z,7.79
2023-03-27T12:40:24.736Z,7.76
2023-03-27T12:42:54.371Z,7.71
2023-03-27T12:45:27.124Z,7.69
2023-03-27T12:48:10.680Z,7.63
2023-03-27T12:50:52.335Z,7.51
2023-03-27T12:53:20.099Z,7.38
2023-03-27T12:55:47.352Z,7.33
2023-03-27T12:58:34.650Z,7.33
2023-03-27T13:01:27.547Z,7.45
2023-03-27T13:04:11.165Z,7.65
2023-03-27T13:07:09.181Z,7.91
2023-03-27T13:10:25.763Z,8.13
2023-03-27T13:12:58.873Z,8.29
2023-03-27T13:16:07.217Z,8.26
2023-03-27T13:19:10.636Z,8.17
2023-03-27T13:22:28.174Z,8.06
2023-03-27T13:25:14.844Z,7.89
2023-03-27T13:27:47.828Z,7.73
2023-03-27T13:30:50.771Z,7.69
2023-03-27T13:33:47.772Z,7.77
2023-03-27T13:36:28.254Z,7.99
2023-03-27T13:38:55.246Z,8.16
2023-03-27T13:41:44.050Z,8.23
2023-03-27T13:44:35.601Z,8.27
2023-03-27T13:47:34.018Z,8.37
2023-03-27T13:50:25.027Z,8.36
2023-03-27T13:53:24.701Z,8.31
2023-03-27T13:56:31.650Z,8.12
2023-03-27T13:59:40.037Z,7.93
2023-03-27T14:02:37.005Z,7.80
2023-03-27T14:05:22.029Z,7.65
2023-03-27T14:08:31.623Z,7.54
2023-03-27T14:12:21.005Z,7.36
2023-03-27T14:15:30.250Z,7.20
2023-03-27T14:18:18.209Z,7.10
2023-03-27T14:20:50.678Z,7.05
2023-03-27T14:23:28.549Z,7.01
2023-03-27T14:26:18.641Z,6.94
2023-03-27T14:28:54.567Z,6.88
2023-03-27T14:31:35.626Z,6.85
2023-03-27T14:34:35.307Z,6.87
2023-03-27T14:37:30.977Z,6.89
2023-03-27T14:40:11.087Z,6.89
2023-03-27T14:42:48.351Z,6.83
2023-03-27T14:45:22.176Z,6.76
2023-03-27T14:47:57.472Z,6.68
2023-03-27T14:50:27.959Z,6.70
2023-03-27T14:52:59.065Z,6.77
2023-03-27T14:55:36.159Z,6.77
2023-03-27T14:58:36.044Z,6.90
2023-03-27T15:01:05.490Z,7.18
2023-03-27T15:03:39.566Z,7.47
2023-03-27T15:06:27.318Z,7.49
2023-03-27T15:09:05.829Z,7.46
2023-03-27T15:12:00.790Z,7.58
2023-03-27T15:14:33.308Z,7.84
2023-03-27T15:17:15.960Z,8.04
2023-03-27T15:19:56.384Z,7.82
2023-03-27T15:22:47.857Z,7.53
2023-03-27T15:25:31.064Z,7.35
2023-03-27T15:28:04.628Z,7.14
2023-03-27T15:30:51.691Z,6.76
2023-03-27T15:33:35.817Z,6.46
2023-03-27T15:36:11.835Z,6.34
2023-03-27T15:38:41.884Z,6.68
2023-03-27T15:41:48.113Z,6.75
2023-03-27T15:44:26.107Z,6.64
2023-03-27T15:46:59.493Z,6.64
2023-03-27T15:49:41.535Z,6.66
2023-03-27T15:52:47.202Z,6.45
2023-03-27T15:55:43.038Z,6.35
2023-03-27T15:58:29.795Z,6.10
2023-03-27T16:01:18.494Z,6.35
2023-03-27T16:11:45.947Z,5.36
2023-03-27T16:14:30.517Z,4.91
2023-03-27T16:17:14.944Z,4.53
2023-03-27T16:19:43.538Z,4.25
2023-03-27T16:22:10.586Z,4.01
2023-03-27T16:24:37.644Z,3.80
2023-03-27T16:27:04.605Z,3.59
2023-03-27T16:29:31.537Z,3.42
2023-03-27T16:31:58.525Z,3.24
2023-03-27T16:34:25.442Z,3.09
2023-03-27T16:36:52.638Z,2.98
2023-03-27T16:39:19.766Z,2.90
2023-03-27T16:41:46.912Z,2.82
2023-03-27T16:44:13.857Z,2.74
2023-03-27T16:46:41.116Z,2.70
2023-03-27T16:49:12.170Z,2.68
2023-03-27T16:51:39.314Z,2.65
2023-03-27T16:54:06.578Z,2.59
2023-03-27T16:56:35.427Z,2.55
2023-03-27T16:59:03.037Z,2.49
2023-03-27T17:01:30.752Z,2.45
2023-03-27T17:03:57.738Z,2.42
2023-03-27T17:06:25.551Z,2.41
2023-03-27T17:08:56.031Z,2.40
2023-03-27T17:11:23.724Z,2.37
2023-03-27T17:13:51.029Z,2.34
2023-03-27T17:16:18.019Z,2.30
2023-03-27T17:18:45.186Z,2.27
2023-03-27T17:21:12.234Z,2.24
2023-03-27T17:23:41.155Z,2.20
2023-03-27T17:26:11.019Z,2.16
2023-03-27T17:28:39.780Z,2.11
2023-03-27T17:31:07.634Z,2.04
2023-03-27T17:33:34.688Z,1.99
2023-03-27T17:36:07.983Z,1.94
2023-03-27T17:38:35.085Z,1.90
2023-03-27T17:41:02.422Z,1.90
2023-03-27T17:43:29.897Z,1.90
2023-03-27T17:45:57.148Z,1.91
2023-03-27T17:48:24.520Z,1.91
2023-03-27T17:51:05.058Z,1.90
2023-03-27T17:53:37.155Z,1.89
2023-03-27T17:56:04.443Z,1.87
2023-03-27T17:58:34.589Z,1.86
2023-03-27T18:01:12.627Z,1.86
2023-03-27T18:03:39.666Z,1.87
2023-03-27T18:06:06.993Z,1.89
2023-03-27T18:08:34.414Z,1.90
2023-03-27T18:11:01.545Z,1.93
2023-03-27T18:13:30.641Z,1.94
2023-03-27T18:15:58.669Z,1.95
2023-03-27T18:18:26.430Z,1.94
2023-03-27T18:20:57.322Z,1.89
2023-03-27T18:23:24.287Z,1.85
2023-03-27T18:25:51.118Z,1.81
2023-03-27T18:28:17.965Z,1.78
2023-03-27T18:30:44.971Z,1.75
2023-03-27T18:33:12.440Z,1.72
2023-03-27T18:35:39.537Z,1.69
2023-03-27T18:38:06.912Z,1.66
2023-03-27T18:40:33.955Z,1.61
2023-03-27T18:43:01.387Z,1.57
2023-03-27T18:45:28.540Z,1.54
2023-03-27T18:47:55.783Z,1.51
2023-03-27T18:50:23.771Z,1.47
2023-03-27T18:52:50.916Z,1.43
2023-03-27T18:55:18.850Z,1.38
2023-03-27T18:57:46.357Z,1.33
2023-03-27T19:00:18.620Z,1.28
2023-03-27T19:02:46.503Z,1.25
2023-03-27T19:05:15.527Z,1.20
2023-03-27T19:07:44.462Z,1.16
2023-03-27T19:10:14.125Z,1.11
2023-03-27T19:12:46.072Z,1.04
2023-03-27T19:15:32.476Z,0.98
2023-03-27T19:18:05.908Z,0.94
2023-03-27T19:21:00.095Z,0.89
2023-03-27T19:23:45.939Z,0.87
2023-03-27T19:26:17.822Z,0.84
2023-03-27T19:28:48.042Z,0.78
2023-03-27T19:31:16.110Z,0.72
2023-03-27T19:33:43.640Z,0.66
2023-03-27T19:36:13.052Z,0.61
2023-03-27T19:38:40.420Z,0.58
2023-03-27T19:41:11.252Z,0.55
2023-03-27T19:43:41.120Z,0.51
2023-03-27T19:46:16.270Z,0.46
2023-03-27T19:48:51.588Z,0.38
2023-03-27T19:51:37.631Z,0.33
2023-03-27T19:54:04.992Z,0.32
2023-03-27T19:56:32.597Z,0.31
2023-03-27T19:59:00.031Z,0.27
2023-03-27T20:01:28.749Z,0.22
2023-03-27T20:03:57.461Z,0.18
2023-03-27T20:06:26.348Z,0.15
2023-03-27T20:08:53.749Z,0.12
2023-03-27T20:11:20.810Z,0.10
2023-03-27T20:13:55.955Z,0.06
2023-03-27T20:16:26.650Z,0.03
2023-03-27T20:19:04.604Z,-0.02
2023-03-27T20:21:35.339Z,-0.06
2023-03-27T20:24:07.396Z,-0.08
2023-03-27T20:26:39.576Z,-0.11
2023-03-27T20:29:18.485Z,-0.14
2023-03-27T20:31:46.241Z,-0.17
2023-03-27T20:34:13.813Z,-0.21
2023-03-27T20:36:40.972Z,-0.23
2023-03-27T20:39:34.428Z,-0.25
2023-03-27T20:42:01.472Z,-0.27
2023-03-27T20:44:37.122Z,-0.30
2023-03-27T20:47:12.389Z,-0.34
2023-03-27T20:49:43.386Z,-0.37
2023-03-27T20:52:13.333Z,-0.42
2023-03-27T20:54:40.787Z,-0.45
2023-03-27T20:57:10.404Z,-0.51
2023-03-27T20:59:37.554Z,-0.57
2023-03-27T21:02:05.382Z,-0.60
2023-03-27T21:04:32.685Z,-0.64
2023-03-27T21:06:59.746Z,-0.68
2023-03-27T21:09:27.810Z,-0.71
2023-03-27T21:11:55.927Z,-0.75
2023-03-27T21:14:23.450Z,-0.78
2023-03-27T21:16:50.601Z,-0.81
2023-03-27T21:19:20.024Z,-0.84
2023-03-27T21:21:47.432Z,-0.88
2023-03-27T21:24:14.532Z,-0.92
2023-03-27T21:26:42.000Z,-0.97
2023-03-27T21:29:11.104Z,-1.00
2023-03-27T21:31:39.541Z,-1.04
2023-03-27T21:34:07.463Z,-1.07
2023-03-27T21:36:35.295Z,-1.10
2023-03-27T21:39:02.387Z,-1.14
2023-03-27T21:41:29.694Z,-1.18
2023-03-27T21:43:56.705Z,-1.21
2023-03-27T21:46:23.892Z,-1.25
2023-03-27T21:48:51.717Z,-1.27
2023-03-27T21:51:19.524Z,-1.28
2023-03-27T21:53:46.972Z,-1.29
2023-03-27T21:56:14.124Z,-1.31
2023-03-27T21:58:41.052Z,-1.32
2023-03-27T22:01:08.468Z,-1.34
2023-03-27T22:03:35.779Z,-1.38
2023-03-27T22:06:12.603Z,-1.41
2023-03-27T22:08:43.040Z,-1.46
2023-03-27T22:11:11.912Z,-1.52
2023-03-27T22:13:39.509Z,-1.57
2023-03-27T22:16:15.037Z,-1.63
2023-03-27T22:18:43.369Z,-1.69
2023-03-27T22:21:25.560Z,-1.72
2023-03-27T22:23:54.071Z,-1.76
2023-03-27T22:26:33.398Z,-1.77
2023-03-27T22:29:00.633Z,-1.77
2023-03-27T22:31:29.442Z,-1.77
2023-03-27T22:33:56.788Z,-1.77
2023-03-27T22:36:23.981Z,-1.80
2023-03-27T22:38:53.517Z,-1.83
2023-03-27T22:41:20.511Z,-1.87
2023-03-27T22:43:49.665Z,-1.93
2023-03-27T22:46:19.686Z,-1.98
2023-03-27T22:48:47.100Z,-2.01
2023-03-27T22:51:14.461Z,-2.09
2023-03-27T22:53:42.008Z,-2.13
2023-03-27T22:56:10.043Z,-2.18
2023-03-27T22:58:37.135Z,-2.22
2023-03-27T23:01:05.928Z,-2.25
2023-03-27T23:03:33.464Z,-2.26
2023-03-27T23:06:00.937Z,-2.26
2023-03-27T23:08:28.725Z,-2.26
2023-03-27T23:11:01.319Z,-2.27
2023-03-27T23:13:30.182Z,-2.28
2023-03-27T23:15:57.774Z,-2.29
2023-03-27T23:18:25.644Z,-2.32
2023-03-27T23:20:58.021Z,-2.36
2023-03-27T23:23:26.628Z,-2.38
2023-03-27T23:25:54.272Z,-2.41
2023-03-27T23:28:21.815Z,-2.44
2023-03-27T23:30:56.793Z,-2.48
2023-03-27T23:33:25.438Z,-2.53
2023-03-27T23:35:54.158Z,-2.56
2023-03-27T23:38:21.097Z,-2.57
2023-03-27T23:40:54.902Z,-2.58
2023-03-27T23:43:21.799Z,-2.60
2023-03-27T23:45:48.753Z,-2.62
2023-03-27T23:48:15.855Z,-2.66
2023-03-27T23:50:42.815Z,-2.70
2023-03-27T23:53:09.671Z,-2.74
2023-03-27T23:55:36.603Z,-2.77
2023-03-27T23:58:04.538Z,-2.81
